createdAt,value
2018-08-17T00:00:21.805Z,1.60
2018-08-17T00:02:50.214Z,1.60
2018-08-17T00:05:20.221Z,1.53
2018-08-17T00:07:48.688Z,1.67
2018-08-17T00:10:18.681Z,1.50
2018-08-17T00:12:47.151Z,1.47
2018-08-17T00:15:15.594Z,1.50
2018-08-17T00:17:44.042Z,1.50
2018-08-17T00:20:12.566Z,1.47
2018-08-17T00:22:41.017Z,1.60
2018-08-17T00:25:09.581Z,1.50
2018-08-17T00:27:37.995Z,1.40
2018-08-17T00:30:07.504Z,1.37
2018-08-17T00:32:36.129Z,1.43
2018-08-17T00:35:04.755Z,1.20
2018-08-17T00:37:33.509Z,1.17
2018-08-17T00:40:02.024Z,1.20
2018-08-17T00:42:30.611Z,1.57
2018-08-17T00:44:59.110Z,1.50
2018-08-17T00:47:27.742Z,1.53
2018-08-17T00:49:56.103Z,1.50
2018-08-17T00:52:24.625Z,1.20
2018-08-17T00:54:53.011Z,1.27
2018-08-17T00:57:21.649Z,1.77
2018-08-17T00:59:50.113Z,1.23
2018-08-17T01:02:18.662Z,1.47
2018-08-17T01:04:47.158Z,1.50
2018-08-17T01:07:16.027Z,1.47
2018-08-17T01:09:44.617Z,1.50
2018-08-17T01:12:13.407Z,1.40
2018-08-17T01:14:41.819Z,1.33
2018-08-17T01:17:10.502Z,1.43
2018-08-17T01:19:38.994Z,1.40
2018-08-17T01:22:07.401Z,1.43
2018-08-17T01:24:36.233Z,1.40
2018-08-17T01:27:04.774Z,1.37
2018-08-17T01:29:33.485Z,1.30
2018-08-17T01:32:02.497Z,1.37
2018-08-17T01:34:31.186Z,1.40
2018-08-17T01:36:59.835Z,1.40
2018-08-17T01:39:28.729Z,1.40
2018-08-17T01:41:57.560Z,1.40
2018-08-17T01:44:26.553Z,1.30
2018-08-17T01:46:55.333Z,1.23
2018-08-17T01:49:24.278Z,1.30
2018-08-17T01:51:53.132Z,1.27
2018-08-17T01:54:21.566Z,1.50
2018-08-17T01:56:50.346Z,1.50
2018-08-17T01:59:19.198Z,1.40
2018-08-17T02:01:47.679Z,1.47
2018-08-17T02:04:16.122Z,1.30
2018-08-17T02:06:44.494Z,1.30
2018-08-17T02:09:13.345Z,1.30
2018-08-17T02:11:42.250Z,1.40
2018-08-17T02:14:11.043Z,1.40
2018-08-17T02:16:39.937Z,1.20
2018-08-17T02:19:08.890Z,1.30
2018-08-17T02:21:37.300Z,1.30
2018-08-17T02:24:05.682Z,1.40
2018-08-17T02:26:34.563Z,1.50
2018-08-17T02:29:03.293Z,1.40
2018-08-17T02:31:31.687Z,1.40
2018-08-17T02:34:00.381Z,1.30
2018-08-17T02:36:29.167Z,1.20
2018-08-17T02:38:58.024Z,1.37
2018-08-17T02:41:26.695Z,1.40
2018-08-17T02:43:55.535Z,1.30
2018-08-17T02:46:24.440Z,1.40
2018-08-17T02:48:53.385Z,1.30
2018-08-17T02:51:22.098Z,1.50
2018-08-17T02:53:50.939Z,1.50
2018-08-17T02:56:19.655Z,1.23
2018-08-17T02:58:48.403Z,1.30
2018-08-17T03:01:17.235Z,1.40
2018-08-17T03:03:45.722Z,1.40
2018-08-17T03:06:14.261Z,1.30
2018-08-17T03:08:42.729Z,1.50
2018-08-17T03:11:14.437Z,1.50
2018-08-17T03:13:42.986Z,1.20
2018-08-17T03:16:11.704Z,1.30
2018-08-17T03:18:40.392Z,1.40
2018-08-17T03:21:08.808Z,1.60
2018-08-17T03:23:37.184Z,1.43
2018-08-17T03:26:06.111Z,1.50
2018-08-17T03:28:34.855Z,1.40
2018-08-17T03:31:03.307Z,1.40
2018-08-17T03:33:31.914Z,1.47
2018-08-17T03:36:00.291Z,1.50
2018-08-17T03:38:28.832Z,1.40
2018-08-17T03:40:57.271Z,1.40
2018-08-17T03:43:25.651Z,1.37
2018-08-17T03:45:54.221Z,1.27
2018-08-17T03:48:23.028Z,1.40
2018-08-17T03:50:51.665Z,1.60
2018-08-17T03:53:20.577Z,1.60
2018-08-17T03:55:49.374Z,1.20
2018-08-17T03:58:17.781Z,1.60
2018-08-17T04:00:46.569Z,1.27
2018-08-17T04:03:15.050Z,1.70
2018-08-17T04:05:43.831Z,1.40
2018-08-17T04:08:12.568Z,1.50
2018-08-17T04:10:41.323Z,1.53
2018-08-17T04:13:10.179Z,1.40
2018-08-17T04:15:38.893Z,1.50
2018-08-17T04:18:08.273Z,1.40
2018-08-17T04:20:36.962Z,1.60
2018-08-17T04:23:06.107Z,1.60
2018-08-17T04:25:34.515Z,1.47
2018-08-17T04:28:02.854Z,1.43
2018-08-17T04:30:31.759Z,1.50
2018-08-17T04:33:00.505Z,1.70
2018-08-17T04:35:29.245Z,1.60
2018-08-17T04:37:57.772Z,1.50
2018-08-17T04:40:26.311Z,1.40
2018-08-17T04:42:54.700Z,1.40
2018-08-17T04:45:23.266Z,1.80
2018-08-17T04:47:52.045Z,1.60
2018-08-17T04:50:21.364Z,1.50
2018-08-17T04:52:49.811Z,1.57
2018-08-17T04:55:19.949Z,1.50
2018-08-17T04:57:48.844Z,1.43
2018-08-17T05:00:18.977Z,1.57
2018-08-17T05:02:47.475Z,1.57
2018-08-17T05:05:16.046Z,1.60
2018-08-17T05:07:44.417Z,1.80
2018-08-17T05:10:12.906Z,1.70
2018-08-17T05:12:41.750Z,1.73
2018-08-17T05:15:10.665Z,1.80
2018-08-17T05:17:39.062Z,1.50
2018-08-17T05:20:07.511Z,1.77
2018-08-17T05:22:36.447Z,1.70
2018-08-17T05:25:05.126Z,1.40
2018-08-17T05:27:33.614Z,1.53
2018-08-17T05:30:02.057Z,1.67
2018-08-17T05:32:30.477Z,1.40
2018-08-17T05:34:58.986Z,1.70
2018-08-17T05:37:27.356Z,1.60
2018-08-17T05:39:55.740Z,1.60
2018-08-17T05:42:24.061Z,1.63
2018-08-17T05:44:52.547Z,1.67
2018-08-17T05:47:20.989Z,1.43
2018-08-17T05:49:49.428Z,1.80
2018-08-17T05:52:17.926Z,1.50
2018-08-17T05:54:46.388Z,1.70
2018-08-17T05:57:16.379Z,1.60
2018-08-17T05:59:44.932Z,1.70
2018-08-17T06:02:13.510Z,1.60
2018-08-17T06:04:41.940Z,1.77
2018-08-17T06:07:10.208Z,1.60
2018-08-17T06:09:38.584Z,1.80
2018-08-17T06:12:07.095Z,1.87
2018-08-17T06:14:45.078Z,1.67
2018-08-17T06:17:13.536Z,1.80
2018-08-17T06:19:42.121Z,1.80
2018-08-17T06:22:14.944Z,1.70
2018-08-17T06:24:43.664Z,1.60
2018-08-17T06:27:12.048Z,1.93
2018-08-17T06:29:40.665Z,1.70
2018-08-17T06:32:09.842Z,1.90
2018-08-17T06:47:35.841Z,1.80
2018-08-17T06:50:05.118Z,1.83
2018-08-17T06:52:33.940Z,2.00
2018-08-17T06:55:02.323Z,1.80
2018-08-17T06:57:30.732Z,1.80
2018-08-17T06:59:58.997Z,1.83
2018-08-17T07:02:27.415Z,1.80
2018-08-17T07:04:55.731Z,1.80
2018-08-17T07:07:24.251Z,2.10
2018-08-17T07:09:52.680Z,1.90
2018-08-17T07:12:21.215Z,1.77
2018-08-17T07:14:56.336Z,1.80
2018-08-17T07:17:24.619Z,1.70
2018-08-17T07:19:53.071Z,1.70
2018-08-17T07:22:21.362Z,1.80
2018-08-17T07:24:49.802Z,2.17
2018-08-17T07:27:18.040Z,2.30
2018-08-17T07:29:46.639Z,2.33
2018-08-17T07:32:14.974Z,2.30
2018-08-17T07:34:43.405Z,2.50
2018-08-17T07:37:11.728Z,2.10
2018-08-17T07:39:40.063Z,2.43
2018-08-17T07:42:08.400Z,2.70
2018-08-17T07:44:36.707Z,2.60
2018-08-17T07:47:05.038Z,3.10
2018-08-17T07:49:33.390Z,2.60
2018-08-17T07:52:01.815Z,2.90
2018-08-17T07:54:30.363Z,2.80
2018-08-17T07:56:58.739Z,2.63
2018-08-17T07:59:27.134Z,2.60
2018-08-17T08:01:55.535Z,2.60
2018-08-17T08:04:24.170Z,2.30
2018-08-17T08:06:53.159Z,2.17
2018-08-17T08:09:21.556Z,2.13
2018-08-17T08:11:49.867Z,2.40
2018-08-17T08:17:20.968Z,3.23
2018-08-17T08:20:00.424Z,2.87
2018-08-17T08:22:29.223Z,3.10
2018-08-17T08:24:57.702Z,3.27
2018-08-17T08:27:26.394Z,3.27
2018-08-17T08:29:55.286Z,2.10
2018-08-17T08:32:23.801Z,2.13
2018-08-17T08:34:52.572Z,2.40
2018-08-17T08:37:21.024Z,2.40
2018-08-17T08:39:49.891Z,2.07
2018-08-17T08:42:18.283Z,1.97
2018-08-17T08:44:46.666Z,2.00
2018-08-17T08:47:15.120Z,2.00
2018-08-17T08:49:43.862Z,1.97
2018-08-17T08:52:12.339Z,2.03
2018-08-17T08:54:41.146Z,2.33
2018-08-17T08:57:09.923Z,2.50
2018-08-17T08:59:38.271Z,2.50
2018-08-17T09:02:06.703Z,2.20
2018-08-17T09:04:35.154Z,2.30
2018-08-17T09:07:04.056Z,2.27
2018-08-17T09:09:32.576Z,2.10
2018-08-17T09:12:01.269Z,2.10
2018-08-17T09:15:18.180Z,2.27
2018-08-17T09:17:46.641Z,2.40
2018-08-17T09:20:16.234Z,2.17
2018-08-17T09:22:44.555Z,2.40
2018-08-17T09:25:13.147Z,2.03
2018-08-17T09:27:42.002Z,2.80
2018-08-17T09:30:12.347Z,2.67
2018-08-17T09:32:41.083Z,2.47
2018-08-17T09:35:10.512Z,2.10
2018-08-17T09:37:39.043Z,1.90
2018-08-17T09:40:08.474Z,2.07
2018-08-17T09:42:36.967Z,1.80
2018-08-17T09:45:06.523Z,2.07
2018-08-17T09:47:35.183Z,1.90
2018-08-17T09:50:04.123Z,1.87
2018-08-17T09:52:32.503Z,2.00
2018-08-17T09:55:00.928Z,1.80
2018-08-17T09:57:29.315Z,1.80
2018-08-17T09:59:57.786Z,2.12
2018-08-17T10:02:31.586Z,1.70
2018-08-17T10:05:05.393Z,2.15
2018-08-17T10:07:39.203Z,1.70
2018-08-17T10:10:13.107Z,1.65
2018-08-17T10:12:41.533Z,1.57
2018-08-17T10:15:34.332Z,1.87
2018-08-17T10:18:02.551Z,1.60
2018-08-17T10:20:30.918Z,1.90
2018-08-17T10:22:59.278Z,1.80
2018-08-17T10:25:27.885Z,1.55
2018-08-17T10:27:57.740Z,1.55
2018-08-17T10:30:26.759Z,1.70
2018-08-17T10:32:56.472Z,1.60
2018-08-17T10:35:27.295Z,1.70
2018-08-17T10:37:56.747Z,1.70
2018-08-17T10:40:44.527Z,1.80
2018-08-17T10:43:12.852Z,1.62
2018-08-17T10:45:41.287Z,1.77
2018-08-17T10:48:09.693Z,1.60
2018-08-17T10:50:38.027Z,1.65
2018-08-17T10:53:06.339Z,1.52
2018-08-17T10:55:42.009Z,1.77
2018-08-17T10:58:12.867Z,1.90
2018-08-17T11:00:41.310Z,1.90
2018-08-17T11:03:09.790Z,1.90
2018-08-17T11:05:38.195Z,1.50
2018-08-17T11:08:06.878Z,1.70
2018-08-17T11:10:35.276Z,1.72
2018-08-17T11:13:03.823Z,1.98
2018-08-17T11:15:50.363Z,1.80
2018-08-17T11:18:19.496Z,1.60
2018-08-17T11:20:47.863Z,1.52
2018-08-17T11:23:16.340Z,1.60
2018-08-17T11:25:44.778Z,1.60
2018-08-17T11:28:13.228Z,1.80
2018-08-17T11:30:41.639Z,1.60
2018-08-17T11:33:10.152Z,1.60
2018-08-17T11:35:38.467Z,1.50
2018-08-17T11:38:06.938Z,1.70
2018-08-17T11:40:35.314Z,1.70
2018-08-17T11:43:03.718Z,1.60
2018-08-17T11:45:32.028Z,1.60
2018-08-17T11:48:00.384Z,1.67
2018-08-17T11:50:28.928Z,1.60
2018-08-17T11:52:59.046Z,1.75
2018-08-17T11:55:29.819Z,1.60
2018-08-17T11:57:58.403Z,1.60
2018-08-17T12:00:31.756Z,1.52
2018-08-17T12:03:01.481Z,1.60
2018-08-17T12:05:29.840Z,1.55
2018-08-17T12:07:58.252Z,1.60
2018-08-17T12:10:27.309Z,1.50
2018-08-17T12:12:58.202Z,1.57
2018-08-17T12:16:05.639Z,1.50
2018-08-17T12:18:34.308Z,1.65
2018-08-17T12:21:02.546Z,1.50
2018-08-17T12:23:30.972Z,1.80
2018-08-17T12:25:59.347Z,1.55
2018-08-17T12:28:28.878Z,1.57
2018-08-17T12:30:57.909Z,1.60
2018-08-17T12:33:26.413Z,1.60
2018-08-17T12:35:54.857Z,1.77
2018-08-17T12:38:23.504Z,1.70
2018-08-17T12:40:54.672Z,1.75
2018-08-17T12:43:27.304Z,1.72
2018-08-17T12:45:55.998Z,1.60
2018-08-17T12:48:24.514Z,1.60
2018-08-17T12:50:52.903Z,1.50
2018-08-17T12:53:21.322Z,1.60
2018-08-17T12:55:49.727Z,1.42
2018-08-17T12:58:18.811Z,1.80
2018-08-17T13:00:47.591Z,1.70
2018-08-17T13:03:16.086Z,1.37
2018-08-17T13:05:44.527Z,1.50
2018-08-17T13:08:12.819Z,1.52
2018-08-17T13:10:41.330Z,1.67
2018-08-17T13:13:10.711Z,1.57
2018-08-17T13:16:12.601Z,1.50
2018-08-17T13:18:41.075Z,1.50
2018-08-17T13:21:09.860Z,1.50
2018-08-17T13:23:38.378Z,1.60
2018-08-17T13:26:06.899Z,1.67
2018-08-17T13:28:35.290Z,1.70
2018-08-17T13:31:03.745Z,1.60
2018-08-17T13:33:32.114Z,1.80
2018-08-17T13:36:00.712Z,1.70
2018-08-17T13:38:29.023Z,1.57
2018-08-17T13:40:57.472Z,1.50
2018-08-17T13:43:25.839Z,1.42
2018-08-17T13:45:54.168Z,1.60
2018-08-17T13:48:22.489Z,1.52
2018-08-17T13:50:50.835Z,1.87
2018-08-17T13:53:19.240Z,2.00
2018-08-17T13:55:47.819Z,2.12
2018-08-17T13:58:16.254Z,1.47
2018-08-17T14:00:44.700Z,1.80
2018-08-17T14:03:13.056Z,1.82
2018-08-17T14:05:41.427Z,1.98
2018-08-17T14:08:09.811Z,1.70
2018-08-17T14:10:38.105Z,1.60
2018-08-17T14:13:06.610Z,1.70
2018-08-17T14:16:21.821Z,1.80
2018-08-17T14:18:50.257Z,1.62
2018-08-17T14:21:18.553Z,1.70
2018-08-17T14:23:47.057Z,1.50
2018-08-17T14:26:15.468Z,1.62
2018-08-17T14:28:43.875Z,1.80
2018-08-17T14:31:12.440Z,1.57
2018-08-17T14:33:40.928Z,1.75
2018-08-17T14:36:09.310Z,1.70
2018-08-17T14:38:37.630Z,1.98
2018-08-17T14:41:06.357Z,1.70
2018-08-17T14:43:34.831Z,1.80
2018-08-17T14:46:03.383Z,1.70
2018-08-17T14:48:31.921Z,1.60
2018-08-17T14:51:00.328Z,1.65
2018-08-17T14:53:28.661Z,1.72
2018-08-17T14:55:57.110Z,1.70
2018-08-17T14:58:25.451Z,1.50
2018-08-17T15:00:53.679Z,1.52
2018-08-17T15:03:21.950Z,1.50
2018-08-17T15:05:50.550Z,1.50
2018-08-17T15:08:18.875Z,1.50
2018-08-17T15:10:47.179Z,1.60
2018-08-17T15:13:15.457Z,1.45
2018-08-17T15:16:35.008Z,1.80
2018-08-17T15:19:03.520Z,1.62
2018-08-17T15:21:31.954Z,1.95
2018-08-17T15:24:00.251Z,1.70
2018-08-17T15:26:28.546Z,1.82
2018-08-17T15:28:56.954Z,1.52
2018-08-17T15:31:25.354Z,1.75
2018-08-17T15:33:53.833Z,1.77
2018-08-17T15:36:23.137Z,1.65
2018-08-17T15:38:51.844Z,2.10
2018-08-17T15:41:20.658Z,1.65
2018-08-17T15:43:49.380Z,1.50
2018-08-17T15:46:18.038Z,1.50
2018-08-17T15:48:54.058Z,1.80
2018-08-17T15:51:22.475Z,1.70
2018-08-17T15:53:50.955Z,1.30
2018-08-17T15:56:19.541Z,1.80
2018-08-17T15:58:47.995Z,1.70
2018-08-17T16:01:16.513Z,1.62
2018-08-17T16:03:44.947Z,1.67
2018-08-17T16:06:13.379Z,1.70
2018-08-17T16:08:41.792Z,1.60
2018-08-17T16:11:18.082Z,1.57
2018-08-17T16:13:46.517Z,1.55
2018-08-17T16:16:45.352Z,1.60
2018-08-17T16:19:13.652Z,1.62
2018-08-17T16:21:42.216Z,1.60
2018-08-17T16:24:10.750Z,1.60
2018-08-17T16:26:39.210Z,1.60
2018-08-17T16:29:07.702Z,1.70
2018-08-17T16:31:36.968Z,1.62
2018-08-17T16:34:05.778Z,1.85
2018-08-17T16:36:37.430Z,1.47
2018-08-17T16:39:08.910Z,1.72
2018-08-17T16:41:37.947Z,1.60
2018-08-17T16:44:06.503Z,1.72
2018-08-17T16:46:36.264Z,1.50
2018-08-17T16:49:04.747Z,1.50
2018-08-17T16:51:33.082Z,1.82
2018-08-17T16:54:01.537Z,1.55
2018-08-17T16:56:29.890Z,1.80
2018-08-17T16:58:58.425Z,1.85
2018-08-17T17:01:26.693Z,1.35
2018-08-17T17:03:55.595Z,1.80
2018-08-17T17:06:24.277Z,1.62
2018-08-17T17:09:00.690Z,1.72
2018-08-17T17:11:29.082Z,1.70
2018-08-17T17:13:57.579Z,1.50
2018-08-17T17:16:54.608Z,1.60
2018-08-17T17:19:23.478Z,1.62
2018-08-17T17:21:52.383Z,1.82
2018-08-17T17:24:21.095Z,1.80
2018-08-17T17:26:49.563Z,1.60
2018-08-17T17:29:17.914Z,1.72
2018-08-17T17:31:50.208Z,1.60
2018-08-17T17:34:18.791Z,1.70
2018-08-17T17:36:47.470Z,1.40
2018-08-17T17:39:16.137Z,1.52
2018-08-17T17:41:44.471Z,1.60
2018-08-17T17:44:12.916Z,1.60
2018-08-17T17:46:41.510Z,1.52
2018-08-17T17:49:10.309Z,1.57
2018-08-17T17:51:38.704Z,1.55
2018-08-17T17:54:07.399Z,1.42
2018-08-17T17:56:35.816Z,1.52
2018-08-17T17:59:09.594Z,1.50
2018-08-17T18:01:37.926Z,1.40
2018-08-17T18:04:06.519Z,1.70
2018-08-17T18:06:35.299Z,1.45
2018-08-17T18:09:04.312Z,1.80
2018-08-17T18:11:33.031Z,1.75
2018-08-17T18:14:01.697Z,1.75
2018-08-17T18:17:03.770Z,1.60
2018-08-17T18:19:32.447Z,1.90
2018-08-17T18:22:00.732Z,1.57
2018-08-17T18:24:29.424Z,1.90
2018-08-17T18:26:57.874Z,1.62
2018-08-17T18:29:26.305Z,1.62
2018-08-17T18:31:54.715Z,1.57
2018-08-17T18:34:23.238Z,1.90
2018-08-17T18:36:51.691Z,1.67
2018-08-17T18:39:20.239Z,1.70
2018-08-17T18:41:48.617Z,1.70
2018-08-17T18:44:17.011Z,1.70
2018-08-17T18:46:45.424Z,1.67
2018-08-17T18:49:13.803Z,1.75
2018-08-17T18:51:42.633Z,1.55
2018-08-17T18:54:11.058Z,1.60
2018-08-17T18:56:39.645Z,1.85
2018-08-17T18:59:08.391Z,1.70
2018-08-17T19:01:36.856Z,1.70
2018-08-17T19:04:05.656Z,1.62
2018-08-17T19:06:34.127Z,1.62
2018-08-17T19:09:03.222Z,1.60
2018-08-17T19:11:32.016Z,1.65
2018-08-17T19:14:00.324Z,1.70
2018-08-17T19:17:16.491Z,2.08
2018-08-17T19:19:44.979Z,1.57
2018-08-17T19:22:13.663Z,1.60
2018-08-17T19:24:42.592Z,1.77
2018-08-17T19:27:22.738Z,1.60
2018-08-17T19:29:52.104Z,1.80
2018-08-17T19:32:20.788Z,1.70
2018-08-17T19:34:49.628Z,1.70
2018-08-17T19:37:18.424Z,1.80
2018-08-17T19:39:47.718Z,1.80
2018-08-17T19:42:16.570Z,1.70
2018-08-17T19:44:45.429Z,1.82
2018-08-17T19:47:14.231Z,1.92
2018-08-17T19:49:43.618Z,2.00
2018-08-17T19:52:12.342Z,1.90
2018-08-17T19:54:41.228Z,1.82
2018-08-17T19:57:10.126Z,2.07
2018-08-17T19:59:38.741Z,1.83
2018-08-17T20:02:07.323Z,1.73
2018-08-17T20:04:36.247Z,1.70
2018-08-17T20:07:04.815Z,1.87
2018-08-17T20:09:33.712Z,1.72
2018-08-17T20:12:02.390Z,1.90
2018-08-17T20:15:02.087Z,1.73
2018-08-17T20:17:30.885Z,1.50
2018-08-17T20:19:59.563Z,1.73
2018-08-17T20:22:27.974Z,1.77
2018-08-17T20:24:56.769Z,1.70
2018-08-17T20:30:48.246Z,1.77
2018-08-17T20:33:22.603Z,1.50
2018-08-17T20:35:51.422Z,1.53
2018-08-17T20:38:19.880Z,1.83
2018-08-17T20:40:48.552Z,1.60
2018-08-17T20:43:16.971Z,1.97
2018-08-17T20:45:45.661Z,1.70
2018-08-17T20:48:14.115Z,1.70
2018-08-17T20:50:42.603Z,1.90
2018-08-17T20:53:11.135Z,1.90
2018-08-17T20:55:39.913Z,1.97
2018-08-17T20:58:08.546Z,1.80
2018-08-17T21:00:36.883Z,1.93
2018-08-17T21:03:05.147Z,1.80
2018-08-17T21:05:33.605Z,1.77
2018-08-17T21:08:02.027Z,1.73
2018-08-17T21:10:30.431Z,1.77
2018-08-17T21:12:58.899Z,1.80
2018-08-17T21:16:04.610Z,1.80
2018-08-17T21:18:32.907Z,1.90
2018-08-17T21:21:01.507Z,1.70
2018-08-17T21:23:30.314Z,1.90
2018-08-17T21:25:59.086Z,1.70
2018-08-17T21:28:27.457Z,2.00
2018-08-17T21:30:55.880Z,1.70
2018-08-17T21:33:24.569Z,1.90
2018-08-17T21:35:52.927Z,1.60
2018-08-17T21:38:21.390Z,1.70
2018-08-17T21:40:49.984Z,1.80
2018-08-17T21:43:18.676Z,1.80
2018-08-17T21:45:48.434Z,1.67
2018-08-17T21:48:25.230Z,2.00
2018-08-17T21:50:53.785Z,1.80
2018-08-17T21:53:22.103Z,1.57
2018-08-17T21:55:50.738Z,2.00
2018-08-17T21:58:19.415Z,1.70
2018-08-17T22:00:48.123Z,2.00
2018-08-17T22:03:23.187Z,1.67
2018-08-17T22:05:51.504Z,1.90
2018-08-17T22:08:19.792Z,2.03
2018-08-17T22:10:48.015Z,1.90
2018-08-17T22:13:29.042Z,1.73
2018-08-17T22:15:57.956Z,1.90
2018-08-17T22:18:27.057Z,1.90
2018-08-17T22:20:55.667Z,2.17
2018-08-17T22:23:24.660Z,2.10
2018-08-17T22:25:53.136Z,1.83
2018-08-17T22:28:21.540Z,2.00
2018-08-17T22:30:49.811Z,1.80
2018-08-17T22:33:18.111Z,1.90
2018-08-17T22:35:47.092Z,1.80
2018-08-17T22:38:15.800Z,1.80
2018-08-17T22:40:44.423Z,1.70
2018-08-17T22:43:13.095Z,1.90
2018-08-17T22:45:41.470Z,1.73
2018-08-17T22:48:09.698Z,1.90
2018-08-17T22:50:37.975Z,1.93
2018-08-17T22:53:06.746Z,2.00
2018-08-17T22:55:35.522Z,1.97
2018-08-17T22:58:04.146Z,1.83
2018-08-17T23:00:32.522Z,1.97
2018-08-17T23:03:01.734Z,1.80
2018-08-17T23:05:33.537Z,1.77
2018-08-17T23:08:01.980Z,1.87
2018-08-17T23:10:30.370Z,1.83
2018-08-17T23:12:58.829Z,1.97
2018-08-17T23:15:27.276Z,1.90
2018-08-17T23:17:57.916Z,1.73
2018-08-17T23:20:31.944Z,1.87
2018-08-17T23:23:01.495Z,1.77
2018-08-17T23:25:30.439Z,1.87
2018-08-17T23:27:58.840Z,1.70
2018-08-17T23:30:27.293Z,1.90
2018-08-17T23:32:55.662Z,1.93
2018-08-17T23:35:25.490Z,1.73
2018-08-17T23:37:54.135Z,1.80
2018-08-17T23:40:23.744Z,2.10
2018-08-17T23:42:52.110Z,1.83
2018-08-17T23:45:20.522Z,1.80
2018-08-17T23:47:48.943Z,2.10
2018-08-17T23:50:17.774Z,1.93
2018-08-17T23:52:46.408Z,1.93
2018-08-17T23:55:16.591Z,1.70
2018-08-17T23:57:45.315Z,2.00
